sensor_id;sensor_type;location;lat;lon;timestamp;P1;durP1;ratioP1;P2;durP2;ratioP2
7737;SDS011;29398;45.328;5.558;2022-10-19T00:00:26;14.57;;;11.07;;
7737;SDS011;29398;45.328;5.558;2022-10-19T00:01:28;12.60;;;10.27;;
7737;SDS011;29398;45.328;5.558;2022-10-19T00:02:30;15.88;;;9.32;;
7737;SDS011;29398;45.328;5.558;2022-10-19T00:03:35;11.05;;;8.77;;
7737;SDS011;29398;45.328;5.558;2022-10-19T00:04:37;11.82;;;9.27;;
7737;SDS011;29398;45.328;5.558;2022-10-19T00:05:38;13.98;;;8.73;;
7737;SDS011;29398;45.328;5.558;2022-10-19T00:06:40;11.70;;;8.98;;
7737;SDS011;29398;45.328;5.558;2022-10-19T00:07:41;10.77;;;8.50;;
7737;SDS011;29398;45.328;5.558;2022-10-19T00:08:43;10.27;;;8.23;;
7737;SDS011;29398;45.328;5.558;2022-10-19T00:09:44;9.00;;;7.80;;
7737;SDS011;29398;45.328;5.558;2022-10-19T00:10:46;15.30;;;7.78;;
7737;SDS011;29398;45.328;5.558;2022-10-19T00:11:48;9.27;;;7.40;;
7737;SDS011;29398;45.328;5.558;2022-10-19T00:12:51;11.57;;;8.48;;
7737;SDS011;29398;45.328;5.558;2022-10-19T00:13:52;12.70;;;8.07;;
7737;SDS011;29398;45.328;5.558;2022-10-19T00:14:56;11.02;;;7.95;;
7737;SDS011;29398;45.328;5.558;2022-10-19T00:15:58;10.85;;;7.55;;
7737;SDS011;29398;45.328;5.558;2022-10-19T00:17:00;11.52;;;7.47;;
7737;SDS011;29398;45.328;5.558;2022-10-19T00:18:01;9.77;;;7.20;;
7737;SDS011;29398;45.328;5.558;2022-10-19T00:19:04;9.35;;;6.95;;
7737;SDS011;29398;45.328;5.558;2022-10-19T00:20:08;9.43;;;6.70;;
7737;SDS011;29398;45.328;5.558;2022-10-19T00:21:11;8.90;;;6.80;;
7737;SDS011;29398;45.328;5.558;2022-10-19T00:22:15;32.63;;;22.23;;
7737;SDS011;29398;45.328;5.558;2022-10-19T00:23:16;54.42;;;36.15;;
7737;SDS011;29398;45.328;5.558;2022-10-19T00:24:18;63.35;;;40.20;;
7737;SDS011;29398;45.328;5.558;2022-10-19T00:25:20;70.65;;;45.38;;
7737;SDS011;29398;45.328;5.558;2022-10-19T00:26:22;82.07;;;51.17;;
7737;SDS011;29398;45.328;5.558;2022-10-19T00:27:23;81.45;;;54.00;;
7737;SDS011;29398;45.328;5.558;2022-10-19T00:28:26;84.28;;;51.25;;
7737;SDS011;29398;45.328;5.558;2022-10-19T00:29:27;82.85;;;53.08;;
7737;SDS011;29398;45.328;5.558;2022-10-19T00:30:31;82.93;;;53.75;;
7737;SDS011;29398;45.328;5.558;2022-10-19T00:31:36;96.45;;;56.80;;
7737;SDS011;29398;45.328;5.558;2022-10-19T00:32:38;87.50;;;55.35;;
7737;SDS011;29398;45.328;5.558;2022-10-19T00:33:39;95.13;;;57.08;;
7737;SDS011;29398;45.328;5.558;2022-10-19T00:34:42;97.90;;;58.55;;
7737;SDS011;29398;45.328;5.558;2022-10-19T00:35:43;93.10;;;57.20;;
7737;SDS011;29398;45.328;5.558;2022-10-19T00:36:47;88.55;;;57.03;;
7737;SDS011;29398;45.328;5.558;2022-10-19T00:37:48;97.20;;;57.05;;
7737;SDS011;29398;45.328;5.558;2022-10-19T00:38:51;92.47;;;57.22;;
7737;SDS011;29398;45.328;5.558;2022-10-19T00:39:53;97.72;;;61.28;;
7737;SDS011;29398;45.328;5.558;2022-10-19T00:40:55;91.50;;;58.10;;
7737;SDS011;29398;45.328;5.558;2022-10-19T00:41:56;88.15;;;57.33;;
7737;SDS011;29398;45.328;5.558;2022-10-19T00:42:58;89.18;;;55.75;;
7737;SDS011;29398;45.328;5.558;2022-10-19T00:43:59;86.45;;;55.35;;
7737;SDS011;29398;45.328;5.558;2022-10-19T00:45:05;82.97;;;53.85;;
7737;SDS011;29398;45.328;5.558;2022-10-19T00:46:13;85.40;;;55.65;;
7737;SDS011;29398;45.328;5.558;2022-10-19T00:47:15;83.68;;;54.83;;
7737;SDS011;29398;45.328;5.558;2022-10-19T00:48:23;80.85;;;51.90;;
7737;SDS011;29398;45.328;5.558;2022-10-19T00:49:29;83.78;;;49.92;;
7737;SDS011;29398;45.328;5.558;2022-10-19T00:50:32;84.60;;;50.45;;
7737;SDS011;29398;45.328;5.558;2022-10-19T00:51:34;78.63;;;51.13;;
7737;SDS011;29398;45.328;5.558;2022-10-19T00:52:38;73.78;;;48.42;;
7737;SDS011;29398;45.328;5.558;2022-10-19T00:53:41;75.55;;;48.50;;
7737;SDS011;29398;45.328;5.558;2022-10-19T00:54:42;78.28;;;47.90;;
7737;SDS011;29398;45.328;5.558;2022-10-19T00:55:46;74.15;;;49.47;;
7737;SDS011;29398;45.328;5.558;2022-10-19T00:56:48;67.18;;;45.53;;
7737;SDS011;29398;45.328;5.558;2022-10-19T00:57:52;67.38;;;42.75;;
7737;SDS011;29398;45.328;5.558;2022-10-19T00:58:53;67.13;;;45.42;;
7737;SDS011;29398;45.328;5.558;2022-10-19T00:59:56;72.00;;;47.65;;
7737;SDS011;29398;45.328;5.558;2022-10-19T01:01:00;67.40;;;41.47;;
7737;SDS011;29398;45.328;5.558;2022-10-19T01:02:06;66.20;;;42.50;;
7737;SDS011;29398;45.328;5.558;2022-10-19T01:03:07;58.83;;;39.35;;
7737;SDS011;29398;45.328;5.558;2022-10-19T01:04:11;58.28;;;38.35;;
7737;SDS011;29398;45.328;5.558;2022-10-19T01:05:12;53.20;;;35.85;;
7737;SDS011;29398;45.328;5.558;2022-10-19T01:06:15;54.28;;;35.60;;
7737;SDS011;29398;45.328;5.558;2022-10-19T01:07:18;43.33;;;29.02;;
7737;SDS011;29398;45.328;5.558;2022-10-19T01:08:20;35.17;;;23.77;;
7737;SDS011;29398;45.328;5.558;2022-10-19T01:09:22;27.42;;;18.67;;
7737;SDS011;29398;45.328;5.558;2022-10-19T01:10:26;22.40;;;15.27;;
7737;SDS011;29398;45.328;5.558;2022-10-19T01:11:38;16.52;;;12.23;;
7737;SDS011;29398;45.328;5.558;2022-10-19T01:13:03;16.52;;;10.38;;
7737;SDS011;29398;45.328;5.558;2022-10-19T01:14:20;12.55;;;8.57;;
7737;SDS011;29398;45.328;5.558;2022-10-19T01:15:30;14.07;;;8.35;;
7737;SDS011;29398;45.328;5.558;2022-10-19T01:16:39;7.97;;;7.05;;
7737;SDS011;29398;45.328;5.558;2022-10-19T01:17:48;9.43;;;6.53;;
7737;SDS011;29398;45.328;5.558;2022-10-19T01:18:56;8.13;;;6.22;;
7737;SDS011;29398;45.328;5.558;2022-10-19T01:21:33;11.13;;;6.97;;
7737;SDS011;29398;45.328;5.558;2022-10-19T01:22:44;7.30;;;5.93;;
7737;SDS011;29398;45.328;5.558;2022-10-19T01:24:15;8.23;;;6.50;;
7737;SDS011;29398;45.328;5.558;2022-10-19T01:25:34;7.05;;;5.90;;
7737;SDS011;29398;45.328;5.558;2022-10-19T01:28:25;7.07;;;6.05;;
7737;SDS011;29398;45.328;5.558;2022-10-19T01:29:51;9.18;;;6.00;;
7737;SDS011;29398;45.328;5.558;2022-10-19T01:31:06;9.55;;;6.10;;
7737;SDS011;29398;45.328;5.558;2022-10-19T01:32:18;7.35;;;6.60;;
7737;SDS011;29398;45.328;5.558;2022-10-19T01:33:28;8.65;;;6.13;;
7737;SDS011;29398;45.328;5.558;2022-10-19T01:34:39;10.23;;;7.15;;
7737;SDS011;29398;45.328;5.558;2022-10-19T01:35:44;8.48;;;6.05;;
7737;SDS011;29398;45.328;5.558;2022-10-19T01:36:53;8.93;;;6.32;;
7737;SDS011;29398;45.328;5.558;2022-10-19T01:38:03;10.70;;;6.82;;
7737;SDS011;29398;45.328;5.558;2022-10-19T01:39:15;9.25;;;6.35;;
7737;SDS011;29398;45.328;5.558;2022-10-19T01:40:24;9.43;;;7.03;;
7737;SDS011;29398;45.328;5.558;2022-10-19T01:41:32;7.90;;;6.53;;
7737;SDS011;29398;45.328;5.558;2022-10-19T01:42:44;8.32;;;6.90;;
7737;SDS011;29398;45.328;5.558;2022-10-19T01:43:52;12.30;;;7.15;;
7737;SDS011;29398;45.328;5.558;2022-10-19T01:45:01;13.52;;;7.50;;
7737;SDS011;29398;45.328;5.558;2022-10-19T01:46:07;10.13;;;7.60;;
7737;SDS011;29398;45.328;5.558;2022-10-19T01:47:14;9.80;;;7.55;;
7737;SDS011;29398;45.328;5.558;2022-10-19T01:48:18;10.15;;;7.50;;
7737;SDS011;29398;45.328;5.558;2022-10-19T01:49:27;11.32;;;7.50;;
7737;SDS011;29398;45.328;5.558;2022-10-19T01:50:33;10.82;;;7.55;;
7737;SDS011;29398;45.328;5.558;2022-10-19T01:51:39;11.23;;;7.18;;
7737;SDS011;29398;45.328;5.558;2022-10-19T01:52:45;11.43;;;7.68;;
7737;SDS011;29398;45.328;5.558;2022-10-19T01:53:49;13.45;;;7.57;;
7737;SDS011;29398;45.328;5.558;2022-10-19T01:54:55;11.93;;;7.00;;
7737;SDS011;29398;45.328;5.558;2022-10-19T01:55:58;9.23;;;7.22;;
7737;SDS011;29398;45.328;5.558;2022-10-19T01:57:03;13.45;;;7.25;;
7737;SDS011;29398;45.328;5.558;2022-10-19T01:58:07;8.98;;;6.85;;
7737;SDS011;29398;45.328;5.558;2022-10-19T01:59:11;11.48;;;7.50;;
7737;SDS011;29398;45.328;5.558;2022-10-19T02:00:15;10.32;;;7.05;;
7737;SDS011;29398;45.328;5.558;2022-10-19T02:01:18;11.38;;;7.15;;
7737;SDS011;29398;45.328;5.558;2022-10-19T02:02:23;13.50;;;7.20;;
7737;SDS011;29398;45.328;5.558;2022-10-19T02:03:27;9.85;;;6.85;;
7737;SDS011;29398;45.328;5.558;2022-10-19T02:04:29;10.38;;;6.68;;
7737;SDS011;29398;45.328;5.558;2022-10-19T02:05:32;11.35;;;6.70;;
7737;SDS011;29398;45.328;5.558;2022-10-19T02:06:34;7.10;;;6.18;;
7737;SDS011;29398;45.328;5.558;2022-10-19T02:07:37;9.88;;;6.18;;
7737;SDS011;29398;45.328;5.558;2022-10-19T02:08:42;9.65;;;6.32;;
7737;SDS011;29398;45.328;5.558;2022-10-19T02:09:47;8.93;;;6.63;;
7737;SDS011;29398;45.328;5.558;2022-10-19T02:10:48;7.38;;;6.03;;
7737;SDS011;29398;45.328;5.558;2022-10-19T02:11:50;10.65;;;6.72;;
7737;SDS011;29398;45.328;5.558;2022-10-19T02:12:56;8.60;;;6.35;;
7737;SDS011;29398;45.328;5.558;2022-10-19T02:14:00;11.07;;;6.80;;
7737;SDS011;29398;45.328;5.558;2022-10-19T02:15:08;12.65;;;6.18;;
7737;SDS011;29398;45.328;5.558;2022-10-19T02:16:15;8.50;;;5.85;;
7737;SDS011;29398;45.328;5.558;2022-10-19T02:17:23;10.20;;;6.13;;
7737;SDS011;29398;45.328;5.558;2022-10-19T02:18:28;7.30;;;6.20;;
7737;SDS011;29398;45.328;5.558;2022-10-19T02:19:34;6.68;;;5.60;;
7737;SDS011;29398;45.328;5.558;2022-10-19T02:20:36;8.80;;;5.97;;
7737;SDS011;29398;45.328;5.558;2022-10-19T02:21:38;9.93;;;5.60;;
7737;SDS011;29398;45.328;5.558;2022-10-19T02:22:39;11.80;;;6.10;;
7737;SDS011;29398;45.328;5.558;2022-10-19T02:23:41;10.25;;;5.40;;
7737;SDS011;29398;45.328;5.558;2022-10-19T02:24:42;6.18;;;5.32;;
7737;SDS011;29398;45.328;5.558;2022-10-19T02:25:44;7.53;;;5.45;;
7737;SDS011;29398;45.328;5.558;2022-10-19T02:26:45;7.13;;;5.22;;
7737;SDS011;29398;45.328;5.558;2022-10-19T02:27:47;7.20;;;5.57;;
7737;SDS011;29398;45.328;5.558;2022-10-19T02:28:48;7.30;;;4.78;;
7737;SDS011;29398;45.328;5.558;2022-10-19T02:29:51;8.52;;;5.05;;
7737;SDS011;29398;45.328;5.558;2022-10-19T02:30:53;5.70;;;4.78;;
7737;SDS011;29398;45.328;5.558;2022-10-19T02:31:57;7.30;;;5.30;;
7737;SDS011;29398;45.328;5.558;2022-10-19T02:32:59;10.80;;;5.30;;
7737;SDS011;29398;45.328;5.558;2022-10-19T02:34:01;7.95;;;4.97;;
7737;SDS011;29398;45.328;5.558;2022-10-19T02:35:03;10.32;;;5.20;;
7737;SDS011;29398;45.328;5.558;2022-10-19T02:36:05;7.50;;;4.97;;
7737;SDS011;29398;45.328;5.558;2022-10-19T02:37:08;7.43;;;5.28;;
7737;SDS011;29398;45.328;5.558;2022-10-19T02:38:09;7.78;;;4.85;;
7737;SDS011;29398;45.328;5.558;2022-10-19T02:39:15;10.50;;;5.68;;
7737;SDS011;29398;45.328;5.558;2022-10-19T02:40:16;8.23;;;5.03;;
7737;SDS011;29398;45.328;5.558;2022-10-19T02:41:20;6.78;;;5.15;;
7737;SDS011;29398;45.328;5.558;2022-10-19T02:42:26;9.13;;;5.28;;
7737;SDS011;29398;45.328;5.558;2022-10-19T02:43:33;7.47;;;4.55;;
7737;SDS011;29398;45.328;5.558;2022-10-19T02:44:39;8.43;;;4.82;;
7737;SDS011;29398;45.328;5.558;2022-10-19T02:45:44;9.85;;;5.28;;
7737;SDS011;29398;45.328;5.558;2022-10-19T02:46:51;10.05;;;4.72;;
7737;SDS011;29398;45.328;5.558;2022-10-19T02:48:01;7.10;;;4.90;;
7737;SDS011;29398;45.328;5.558;2022-10-19T02:49:04;10.77;;;5.30;;
7737;SDS011;29398;45.328;5.558;2022-10-19T02:50:09;6.80;;;5.15;;
7737;SDS011;29398;45.328;5.558;2022-10-19T02:51:26;8.05;;;6.63;;
7737;SDS011;29398;45.328;5.558;2022-10-19T02:52:35;11.60;;;9.07;;
7737;SDS011;29398;45.328;5.558;2022-10-19T02:53:36;14.75;;;9.85;;
7737;SDS011;29398;45.328;5.558;2022-10-19T02:54:38;11.63;;;9.13;;
7737;SDS011;29398;45.328;5.558;2022-10-19T02:55:41;14.75;;;9.75;;
7737;SDS011;29398;45.328;5.558;2022-10-19T02:56:43;14.48;;;9.63;;
7737;SDS011;29398;45.328;5.558;2022-10-19T02:57:44;13.02;;;8.73;;
7737;SDS011;29398;45.328;5.558;2022-10-19T02:58:46;11.30;;;7.65;;
7737;SDS011;29398;45.328;5.558;2022-10-19T02:59:47;10.00;;;8.60;;
7737;SDS011;29398;45.328;5.558;2022-10-19T03:00:50;10.60;;;7.97;;
7737;SDS011;29398;45.328;5.558;2022-10-19T03:01:51;14.35;;;8.27;;
7737;SDS011;29398;45.328;5.558;2022-10-19T03:02:53;12.73;;;8.77;;
7737;SDS011;29398;45.328;5.558;2022-10-19T03:03:55;15.02;;;9.13;;
7737;SDS011;29398;45.328;5.558;2022-10-19T03:04:57;11.25;;;7.93;;
7737;SDS011;29398;45.328;5.558;2022-10-19T03:05:58;14.05;;;7.47;;
7737;SDS011;29398;45.328;5.558;2022-10-19T03:07:00;11.98;;;7.65;;
7737;SDS011;29398;45.328;5.558;2022-10-19T03:08:03;11.85;;;7.20;;
7737;SDS011;29398;45.328;5.558;2022-10-19T03:09:04;7.78;;;6.88;;
7737;SDS011;29398;45.328;5.558;2022-10-19T03:10:06;11.43;;;7.28;;
7737;SDS011;29398;45.328;5.558;2022-10-19T03:11:08;10.45;;;7.28;;
7737;SDS011;29398;45.328;5.558;2022-10-19T03:12:10;8.68;;;6.65;;
7737;SDS011;29398;45.328;5.558;2022-10-19T03:13:11;11.23;;;7.07;;
7737;SDS011;29398;45.328;5.558;2022-10-19T03:14:13;8.85;;;6.63;;
7737;SDS011;29398;45.328;5.558;2022-10-19T03:15:14;6.80;;;5.43;;
7737;SDS011;29398;45.328;5.558;2022-10-19T03:16:17;9.48;;;5.55;;
7737;SDS011;29398;45.328;5.558;2022-10-19T03:17:18;9.13;;;5.65;;
7737;SDS011;29398;45.328;5.558;2022-10-19T03:18:20;10.07;;;6.90;;
7737;SDS011;29398;45.328;5.558;2022-10-19T03:19:22;11.20;;;6.93;;
7737;SDS011;29398;45.328;5.558;2022-10-19T03:20:25;9.13;;;7.00;;
7737;SDS011;29398;45.328;5.558;2022-10-19T03:21:26;10.13;;;6.82;;
7737;SDS011;29398;45.328;5.558;2022-10-19T03:22:28;8.23;;;6.70;;
7737;SDS011;29398;45.328;5.558;2022-10-19T03:23:29;9.23;;;7.70;;
7737;SDS011;29398;45.328;5.558;2022-10-19T03:24:31;12.02;;;9.15;;
7737;SDS011;29398;45.328;5.558;2022-10-19T03:25:32;15.25;;;9.68;;
7737;SDS011;29398;45.328;5.558;2022-10-19T03:26:35;10.80;;;9.63;;
7737;SDS011;29398;45.328;5.558;2022-10-19T03:27:36;15.93;;;10.13;;
7737;SDS011;29398;45.328;5.558;2022-10-19T03:28:38;15.02;;;11.27;;
7737;SDS011;29398;45.328;5.558;2022-10-19T03:29:39;19.13;;;11.75;;
7737;SDS011;29398;45.328;5.558;2022-10-19T03:30:41;13.57;;;10.82;;
7737;SDS011;29398;45.328;5.558;2022-10-19T03:31:42;17.90;;;10.60;;
7737;SDS011;29398;45.328;5.558;2022-10-19T03:32:44;14.30;;;9.80;;
7737;SDS011;29398;45.328;5.558;2022-10-19T03:33:46;17.83;;;9.60;;
7737;SDS011;29398;45.328;5.558;2022-10-19T03:34:50;12.90;;;10.23;;
7737;SDS011;29398;45.328;5.558;2022-10-19T03:37:15;12.15;;;9.60;;
7737;SDS011;29398;45.328;5.558;2022-10-19T03:38:16;12.85;;;8.75;;
7737;SDS011;29398;45.328;5.558;2022-10-19T03:39:18;10.90;;;8.85;;
7737;SDS011;29398;45.328;5.558;2022-10-19T03:40:19;13.63;;;9.88;;
7737;SDS011;29398;45.328;5.558;2022-10-19T03:41:21;18.52;;;11.50;;
7737;SDS011;29398;45.328;5.558;2022-10-19T03:42:24;15.48;;;12.13;;
7737;SDS011;29398;45.328;5.558;2022-10-19T03:43:26;14.43;;;12.38;;
7737;SDS011;29398;45.328;5.558;2022-10-19T03:44:27;16.02;;;12.32;;
7737;SDS011;29398;45.328;5.558;2022-10-19T03:45:29;18.27;;;12.98;;
7737;SDS011;29398;45.328;5.558;2022-10-19T03:46:30;19.35;;;15.15;;
7737;SDS011;29398;45.328;5.558;2022-10-19T03:47:33;17.20;;;14.32;;
7737;SDS011;29398;45.328;5.558;2022-10-19T03:48:34;19.92;;;15.02;;
7737;SDS011;29398;45.328;5.558;2022-10-19T03:49:36;18.70;;;14.77;;
7737;SDS011;29398;45.328;5.558;2022-10-19T03:50:38;17.90;;;13.82;;
7737;SDS011;29398;45.328;5.558;2022-10-19T03:51:40;16.40;;;13.57;;
7737;SDS011;29398;45.328;5.558;2022-10-19T03:52:41;17.73;;;14.25;;
7737;SDS011;29398;45.328;5.558;2022-10-19T03:53:44;16.52;;;14.73;;
7737;SDS011;29398;45.328;5.558;2022-10-19T03:54:48;18.10;;;14.25;;
7737;SDS011;29398;45.328;5.558;2022-10-19T03:55:50;16.02;;;13.82;;
7737;SDS011;29398;45.328;5.558;2022-10-19T03:56:51;16.98;;;12.65;;
7737;SDS011;29398;45.328;5.558;2022-10-19T03:57:53;18.45;;;13.50;;
7737;SDS011;29398;45.328;5.558;2022-10-19T03:58:55;14.38;;;12.70;;
7737;SDS011;29398;45.328;5.558;2022-10-19T03:59:58;18.00;;;14.63;;
7737;SDS011;29398;45.328;5.558;2022-10-19T04:01:00;16.83;;;13.68;;
7737;SDS011;29398;45.328;5.558;2022-10-19T04:02:02;16.25;;;12.95;;
7737;SDS011;29398;45.328;5.558;2022-10-19T04:03:03;17.25;;;13.60;;
7737;SDS011;29398;45.328;5.558;2022-10-19T04:04:06;18.35;;;14.73;;
7737;SDS011;29398;45.328;5.558;2022-10-19T04:05:10;17.13;;;13.57;;
7737;SDS011;29398;45.328;5.558;2022-10-19T04:06:14;16.95;;;14.65;;
7737;SDS011;29398;45.328;5.558;2022-10-19T04:07:17;19.67;;;16.13;;
7737;SDS011;29398;45.328;5.558;2022-10-19T04:08:19;19.77;;;16.27;;
7737;SDS011;29398;45.328;5.558;2022-10-19T04:09:20;20.23;;;16.15;;
7737;SDS011;29398;45.328;5.558;2022-10-19T04:10:23;19.95;;;16.15;;
7737;SDS011;29398;45.328;5.558;2022-10-19T04:11:25;20.13;;;15.63;;
7737;SDS011;29398;45.328;5.558;2022-10-19T04:12:28;19.23;;;15.50;;
7737;SDS011;29398;45.328;5.558;2022-10-19T04:13:29;18.95;;;15.57;;
7737;SDS011;29398;45.328;5.558;2022-10-19T04:14:32;19.30;;;14.25;;
7737;SDS011;29398;45.328;5.558;2022-10-19T04:15:33;19.35;;;16.05;;
7737;SDS011;29398;45.328;5.558;2022-10-19T04:16:35;21.45;;;15.20;;
7737;SDS011;29398;45.328;5.558;2022-10-19T04:17:36;19.63;;;15.65;;
7737;SDS011;29398;45.328;5.558;2022-10-19T04:18:38;19.48;;;14.95;;
7737;SDS011;29398;45.328;5.558;2022-10-19T04:19:39;20.23;;;15.63;;
7737;SDS011;29398;45.328;5.558;2022-10-19T04:20:41;18.30;;;15.40;;
7737;SDS011;29398;45.328;5.558;2022-10-19T04:21:46;18.42;;;14.52;;
7737;SDS011;29398;45.328;5.558;2022-10-19T04:22:51;19.75;;;15.27;;
7737;SDS011;29398;45.328;5.558;2022-10-19T04:23:53;17.45;;;14.32;;
7737;SDS011;29398;45.328;5.558;2022-10-19T04:24:58;16.50;;;13.07;;
7737;SDS011;29398;45.328;5.558;2022-10-19T04:26:00;14.95;;;13.00;;
7737;SDS011;29398;45.328;5.558;2022-10-19T04:27:01;14.40;;;12.68;;
7737;SDS011;29398;45.328;5.558;2022-10-19T04:28:03;15.95;;;12.50;;
7737;SDS011;29398;45.328;5.558;2022-10-19T04:29:04;18.98;;;12.10;;
7737;SDS011;29398;45.328;5.558;2022-10-19T04:30:06;15.55;;;11.80;;
7737;SDS011;29398;45.328;5.558;2022-10-19T04:31:09;16.85;;;11.25;;
7737;SDS011;29398;45.328;5.558;2022-10-19T04:32:11;19.80;;;13.30;;
7737;SDS011;29398;45.328;5.558;2022-10-19T04:33:13;14.82;;;11.55;;
7737;SDS011;29398;45.328;5.558;2022-10-19T04:34:15;17.50;;;11.55;;
7737;SDS011;29398;45.328;5.558;2022-10-19T04:35:17;14.45;;;10.65;;
7737;SDS011;29398;45.328;5.558;2022-10-19T04:36:18;14.50;;;10.55;;
7737;SDS011;29398;45.328;5.558;2022-10-19T04:37:21;12.93;;;9.60;;
7737;SDS011;29398;45.328;5.558;2022-10-19T04:38:23;13.95;;;8.80;;
7737;SDS011;29398;45.328;5.558;2022-10-19T04:39:25;13.00;;;9.25;;
7737;SDS011;29398;45.328;5.558;2022-10-19T04:40:30;13.13;;;8.52;;
7737;SDS011;29398;45.328;5.558;2022-10-19T04:41:33;11.05;;;7.53;;
7737;SDS011;29398;45.328;5.558;2022-10-19T04:42:35;11.50;;;7.75;;
7737;SDS011;29398;45.328;5.558;2022-10-19T04:43:36;10.85;;;7.53;;
7737;SDS011;29398;45.328;5.558;2022-10-19T04:44:38;10.63;;;7.38;;
7737;SDS011;29398;45.328;5.558;2022-10-19T04:45:39;10.77;;;7.13;;
7737;SDS011;29398;45.328;5.558;2022-10-19T04:46:41;12.52;;;7.43;;
7737;SDS011;29398;45.328;5.558;2022-10-19T04:47:44;10.10;;;7.15;;
7737;SDS011;29398;45.328;5.558;2022-10-19T04:48:45;10.10;;;6.28;;
7737;SDS011;29398;45.328;5.558;2022-10-19T04:49:48;7.80;;;6.25;;
7737;SDS011;29398;45.328;5.558;2022-10-19T04:50:52;10.45;;;6.72;;
7737;SDS011;29398;45.328;5.558;2022-10-19T04:51:55;13.73;;;6.70;;
7737;SDS011;29398;45.328;5.558;2022-10-19T04:52:58;9.93;;;6.32;;
7737;SDS011;29398;45.328;5.558;2022-10-19T04:53:59;9.63;;;6.25;;
7737;SDS011;29398;45.328;5.558;2022-10-19T04:55:03;9.55;;;6.35;;
7737;SDS011;29398;45.328;5.558;2022-10-19T04:56:05;9.40;;;5.95;;
7737;SDS011;29398;45.328;5.558;2022-10-19T04:57:08;11.38;;;6.28;;
7737;SDS011;29398;45.328;5.558;2022-10-19T04:58:10;10.15;;;6.00;;
7737;SDS011;29398;45.328;5.558;2022-10-19T04:59:11;13.10;;;6.28;;
7737;SDS011;29398;45.328;5.558;2022-10-19T05:00:13;11.80;;;6.72;;
7737;SDS011;29398;45.328;5.558;2022-10-19T05:01:15;10.35;;;6.20;;
7737;SDS011;29398;45.328;5.558;2022-10-19T05:02:19;11.38;;;5.90;;
7737;SDS011;29398;45.328;5.558;2022-10-19T05:03:20;13.25;;;6.60;;
7737;SDS011;29398;45.328;5.558;2022-10-19T05:04:22;11.43;;;6.65;;
7737;SDS011;29398;45.328;5.558;2022-10-19T05:05:23;14.20;;;6.72;;
7737;SDS011;29398;45.328;5.558;2022-10-19T05:06:26;11.10;;;6.35;;
7737;SDS011;29398;45.328;5.558;2022-10-19T05:07:27;12.70;;;7.13;;
7737;SDS011;29398;45.328;5.558;2022-10-19T05:08:31;11.55;;;7.07;;
7737;SDS011;29398;45.328;5.558;2022-10-19T05:09:32;10.48;;;7.43;;
7737;SDS011;29398;45.328;5.558;2022-10-19T05:10:34;11.73;;;7.95;;
7737;SDS011;29398;45.328;5.558;2022-10-19T05:11:35;13.20;;;7.53;;
7737;SDS011;29398;45.328;5.558;2022-10-19T05:12:37;10.88;;;7.43;;
7737;SDS011;29398;45.328;5.558;2022-10-19T05:13:39;14.63;;;7.35;;
7737;SDS011;29398;45.328;5.558;2022-10-19T05:14:41;10.93;;;7.88;;
7737;SDS011;29398;45.328;5.558;2022-10-19T05:15:42;9.35;;;7.80;;
7737;SDS011;29398;45.328;5.558;2022-10-19T05:16:44;14.35;;;8.50;;
7737;SDS011;29398;45.328;5.558;2022-10-19T05:17:45;14.35;;;7.60;;
7737;SDS011;29398;45.328;5.558;2022-10-19T05:18:48;11.70;;;7.72;;
7737;SDS011;29398;45.328;5.558;2022-10-19T05:19:50;15.15;;;8.10;;
7737;SDS011;29398;45.328;5.558;2022-10-19T05:20:58;12.25;;;7.55;;
7737;SDS011;29398;45.328;5.558;2022-10-19T05:22:00;11.07;;;7.07;;
7737;SDS011;29398;45.328;5.558;2022-10-19T05:23:03;20.42;;;7.60;;
7737;SDS011;29398;45.328;5.558;2022-10-19T05:24:05;9.90;;;7.00;;
7737;SDS011;29398;45.328;5.558;2022-10-19T05:25:07;12.02;;;7.15;;
7737;SDS011;29398;45.328;5.558;2022-10-19T05:26:09;10.63;;;7.32;;
7737;SDS011;29398;45.328;5.558;2022-10-19T05:27:13;12.40;;;6.47;;
7737;SDS011;29398;45.328;5.558;2022-10-19T05:28:15;12.02;;;7.03;;
7737;SDS011;29398;45.328;5.558;2022-10-19T05:29:16;12.07;;;6.68;;
7737;SDS011;29398;45.328;5.558;2022-10-19T05:30:18;9.20;;;6.53;;
7737;SDS011;29398;45.328;5.558;2022-10-19T05:31:21;7.85;;;5.60;;
7737;SDS011;29398;45.328;5.558;2022-10-19T05:32:25;9.68;;;6.28;;
7737;SDS011;29398;45.328;5.558;2022-10-19T05:33:26;10.18;;;6.20;;
7737;SDS011;29398;45.328;5.558;2022-10-19T05:34:28;9.88;;;5.93;;
7737;SDS011;29398;45.328;5.558;2022-10-19T05:35:29;9.27;;;5.75;;
7737;SDS011;29398;45.328;5.558;2022-10-19T05:36:32;7.47;;;5.80;;
7737;SDS011;29398;45.328;5.558;2022-10-19T05:37:36;9.25;;;5.68;;
7737;SDS011;29398;45.328;5.558;2022-10-19T05:38:37;9.60;;;5.72;;
7737;SDS011;29398;45.328;5.558;2022-10-19T05:39:40;10.02;;;6.15;;
7737;SDS011;29398;45.328;5.558;2022-10-19T05:40:45;7.88;;;6.05;;
7737;SDS011;29398;45.328;5.558;2022-10-19T05:41:46;9.98;;;5.78;;
7737;SDS011;29398;45.328;5.558;2022-10-19T05:42:49;11.82;;;6.32;;
7737;SDS011;29398;45.328;5.558;2022-10-19T05:43:51;15.20;;;6.53;;
7737;SDS011;29398;45.328;5.558;2022-10-19T05:44:54;13.95;;;6.78;;
7737;SDS011;29398;45.328;5.558;2022-10-19T05:45:55;11.13;;;7.03;;
7737;SDS011;29398;45.328;5.558;2022-10-19T05:46:57;10.82;;;7.70;;
7737;SDS011;29398;45.328;5.558;2022-10-19T05:47:58;15.88;;;7.70;;
7737;SDS011;29398;45.328;5.558;2022-10-19T05:49:00;10.88;;;7.47;;
7737;SDS011;29398;45.328;5.558;2022-10-19T05:50:03;11.45;;;7.05;;
7737;SDS011;29398;45.328;5.558;2022-10-19T05:51:05;11.05;;;7.00;;
7737;SDS011;29398;45.328;5.558;2022-10-19T05:52:07;17.63;;;7.82;;
7737;SDS011;29398;45.328;5.558;2022-10-19T05:53:08;8.95;;;6.88;;
7737;SDS011;29398;45.328;5.558;2022-10-19T05:54:11;11.43;;;7.07;;
7737;SDS011;29398;45.328;5.558;2022-10-19T05:55:14;12.63;;;6.90;;
7737;SDS011;29398;45.328;5.558;2022-10-19T05:56:17;11.43;;;7.53;;
7737;SDS011;29398;45.328;5.558;2022-10-19T05:57:19;10.88;;;7.18;;
7737;SDS011;29398;45.328;5.558;2022-10-19T05:58:21;11.05;;;6.70;;
7737;SDS011;29398;45.328;5.558;2022-10-19T05:59:22;9.40;;;6.40;;
7737;SDS011;29398;45.328;5.558;2022-10-19T06:00:24;10.02;;;6.35;;
7737;SDS011;29398;45.328;5.558;2022-10-19T06:01:26;9.63;;;6.05;;
7737;SDS011;29398;45.328;5.558;2022-10-19T06:02:29;12.00;;;6.45;;
7737;SDS011;29398;45.328;5.558;2022-10-19T06:03:31;8.82;;;5.70;;
7737;SDS011;29398;45.328;5.558;2022-10-19T06:04:33;9.65;;;5.88;;
7737;SDS011;29398;45.328;5.558;2022-10-19T06:05:35;9.57;;;5.90;;
7737;SDS011;29398;45.328;5.558;2022-10-19T06:06:36;8.05;;;6.10;;
7737;SDS011;29398;45.328;5.558;2022-10-19T06:07:38;11.10;;;6.57;;
7737;SDS011;29398;45.328;5.558;2022-10-19T06:08:39;10.50;;;5.30;;
7737;SDS011;29398;45.328;5.558;2022-10-19T06:09:42;10.30;;;5.55;;
7737;SDS011;29398;45.328;5.558;2022-10-19T06:10:44;10.57;;;5.82;;
7737;SDS011;29398;45.328;5.558;2022-10-19T06:11:46;9.77;;;5.85;;
7737;SDS011;29398;45.328;5.558;2022-10-19T06:12:48;11.45;;;5.90;;
7737;SDS011;29398;45.328;5.558;2022-10-19T06:13:50;11.35;;;5.97;;
7737;SDS011;29398;45.328;5.558;2022-10-19T06:14:53;12.43;;;5.88;;
7737;SDS011;29398;45.328;5.558;2022-10-19T06:15:55;10.65;;;5.82;;
7737;SDS011;29398;45.328;5.558;2022-10-19T06:16:56;10.23;;;6.30;;
7737;SDS011;29398;45.328;5.558;2022-10-19T06:17:58;13.35;;;6.20;;
7737;SDS011;29398;45.328;5.558;2022-10-19T06:18:59;10.60;;;6.25;;
7737;SDS011;29398;45.328;5.558;2022-10-19T06:20:01;11.43;;;6.13;;
7737;SDS011;29398;45.328;5.558;2022-10-19T06:21:03;10.95;;;5.70;;
7737;SDS011;29398;45.328;5.558;2022-10-19T06:22:06;13.05;;;5.68;;
7737;SDS011;29398;45.328;5.558;2022-10-19T06:23:08;8.65;;;5.50;;
7737;SDS011;29398;45.328;5.558;2022-10-19T06:24:10;11.48;;;5.93;;
7737;SDS011;29398;45.328;5.558;2022-10-19T06:25:12;9.90;;;6.15;;
7737;SDS011;29398;45.328;5.558;2022-10-19T06:26:15;10.00;;;5.45;;